Time;durP1;ratioP1;P1;durP2;ratioP2;P2;SDS_P1;SDS_P2;PMS_P1;PMS_P2;Temp;Humidity;BMP_temperature;BMP_pressure;BME280_temperature;BME280_humidity;BME280_pressure;Samples;Min_cycle;Max_cycle;Signal;HPM_P1;HPM_P2
2023/08/04 00:00:33;;;;;;;;;;;18.80;99.90;;;;;;2094397;28;20705;-72
2023/08/04 00:01:34;;;;;;;;;;;18.70;99.90;;;;;;2091829;28;20014;-71
2023/08/04 00:02:35;;;;;;;;;;;18.70;99.90;;;;;;2091303;28;19917;-71
2023/08/04 00:03:36;;;;;;;;;;;18.70;99.90;;;;;;2094859;28;19912;-71
2023/08/04 00:04:36;;;;;;;;;;;18.70;99.90;;;;;;2092884;28;19998;-71
2023/08/04 00:05:37;;;;;;;;;;;18.70;99.90;;;;;;2094749;28;19908;-71
2023/08/04 00:06:37;;;;;;;;;;;18.60;99.90;;;;;;2095025;28;19927;-71
2023/08/04 00:07:38;;;;;;;;;;;18.60;99.90;;;;;;2097360;28;19951;-70
2023/08/04 00:08:38;;;;;;;;;;;18.70;99.90;;;;;;2093292;28;20168;-70
2023/08/04 00:09:39;;;;;;;;;;;18.60;99.90;;;;;;2095529;28;20543;-70
2023/08/04 00:10:39;;;;;;;;;;;18.60;99.90;;;;;;2094308;28;19916;-69
2023/08/04 00:11:40;;;;;;;;;;;18.60;99.90;;;;;;2089100;28;19983;-70
2023/08/04 00:12:40;;;;;;;;;;;18.60;99.90;;;;;;2093675;28;19938;-70
2023/08/04 00:13:41;;;;;;;;;;;18.60;99.90;;;;;;2095865;28;19916;-70
2023/08/04 00:14:41;;;;;;;;;;;18.60;99.90;;;;;;2096421;28;20562;-71
2023/08/04 00:15:42;;;;;;;;;;;18.60;99.90;;;;;;2097381;28;20457;-70
2023/08/04 00:16:42;;;;;;;;;;;18.70;99.90;;;;;;2094335;28;19925;-69
2023/08/04 00:17:43;;;;;;;;;;;18.70;99.90;;;;;;2092199;28;19916;-70
2023/08/04 00:18:43;;;;;;;;;;;18.70;99.90;;;;;;2096548;28;20386;-70
2023/08/04 00:19:44;;;;;;;;;;;18.70;99.90;;;;;;2096912;28;19963;-70
2023/08/04 00:20:44;;;;;;;;;;;18.70;99.90;;;;;;2088622;28;19990;-72
2023/08/04 00:21:45;;;;;;;;;;;18.70;99.90;;;;;;2097984;28;19995;-69
2023/08/04 00:22:45;;;;;;;;;;;18.70;99.90;;;;;;2093323;28;20684;-70
2023/08/04 00:23:46;;;;;;;;;;;18.70;99.90;;;;;;2093522;28;19955;-70
2023/08/04 00:24:46;;;;;;;;;;;18.80;99.90;;;;;;2092114;28;20358;-70
2023/08/04 00:25:47;;;;;;;;;;;18.80;99.90;;;;;;2096725;28;19917;-71
2023/08/04 00:26:47;;;;;;;;;;;18.70;99.90;;;;;;2096643;28;19939;-71
2023/08/04 00:27:49;;;;;;;;;;;18.70;99.90;;;;;;2093201;28;19917;-70
2023/08/04 00:28:50;;;;;;;;;;;18.80;99.90;;;;;;2094494;28;19955;-70
2023/08/04 00:29:50;;;;;;;;;;;18.80;99.90;;;;;;2096853;28;19916;-71
2023/08/04 00:30:51;;;;;;;;;;;18.80;99.90;;;;;;2097995;28;19939;-70
2023/08/04 00:31:51;;;;;;;;;;;18.80;99.90;;;;;;2091680;28;19927;-70
2023/08/04 00:32:53;;;;;;;;;;;18.80;99.90;;;;;;2096717;28;19923;-71
2023/08/04 00:33:55;;;;;;;;;;;18.80;99.90;;;;;;2095759;28;20379;-71
2023/08/04 00:34:56;;;;;;;;;;;18.80;99.90;;;;;;2096080;28;19924;-70
2023/08/04 00:35:56;;;;;;;;;;;18.80;99.90;;;;;;2095865;28;20023;-70
2023/08/04 00:36:56;;;;;;;;;;;18.80;99.90;;;;;;2097306;28;19923;-70
2023/08/04 00:37:57;;;;;;;;;;;18.80;99.90;;;;;;2097301;28;20306;-70
2023/08/04 00:38:58;;;;;;;;;;;18.80;99.90;;;;;;2096812;28;20398;-71
2023/08/04 00:39:58;;;;;;;;;;;18.80;99.90;;;;;;2096109;28;20007;-70
2023/08/04 00:40:59;;;;;;;;;;;18.80;99.90;;;;;;2095198;28;20394;-70
2023/08/04 00:41:59;;;;;;;;;;;18.80;99.90;;;;;;2077837;28;19913;-71
2023/08/04 00:43:02;;;;;;;;;;;18.80;99.90;;;;;;2081603;28;19921;-70
2023/08/04 00:44:02;;;;;;;;;;;18.80;99.90;;;;;;2089965;28;19917;-71
2023/08/04 00:45:05;;;;;;;;;;;18.80;99.90;;;;;;2088336;28;19940;-71
2023/08/04 00:46:05;;;;;;;;;;;18.80;99.90;;;;;;2093115;28;19963;-71
2023/08/04 00:47:07;;;;;;;;;;;18.80;99.90;;;;;;2094048;28;19963;-69
2023/08/04 00:48:08;;;;;;;;;;;18.80;99.90;;;;;;2093912;28;20026;-71
2023/08/04 00:49:09;;;;;;;;;;;18.80;99.90;;;;;;2085914;28;19988;-70
2023/08/04 00:50:10;;;;;;;;;;;18.80;99.90;;;;;;2086723;28;19916;-71
2023/08/04 00:51:10;;;;;;;;;;;18.80;99.90;;;;;;2087052;28;19916;-70
2023/08/04 00:52:11;;;;;;;;;;;18.80;99.90;;;;;;2095313;28;19950;-69
2023/08/04 00:53:11;;;;;;;;;;;18.80;99.90;;;;;;2098318;28;20035;-71
2023/08/04 00:54:12;;;;;;;;;;;18.90;99.90;;;;;;2096654;28;20620;-70
2023/08/04 00:55:13;;;;;;;;;;;18.90;99.90;;;;;;2095389;28;20282;-70
2023/08/04 00:56:14;;;;;;;;;;;18.90;99.90;;;;;;2096592;28;20023;-70
2023/08/04 00:57:14;;;;;;;;;;;18.90;99.90;;;;;;2093075;28;20359;-69
2023/08/04 00:58:15;;;;;;;;;;;18.90;99.90;;;;;;2095296;28;20378;-72
2023/08/04 00:59:15;;;;;;;;;;;18.90;99.90;;;;;;2091725;28;19927;-71
2023/08/04 01:00:16;;;;;;;;;;;18.90;99.90;;;;;;2093209;28;19952;-71
2023/08/04 01:01:16;;;;;;;;;;;18.90;99.90;;;;;;2093518;28;19966;-71
2023/08/04 01:02:18;;;;;;;;;;;18.90;99.90;;;;;;2089263;28;19998;-70
2023/08/04 01:03:18;;;;;;;;;;;18.90;99.90;;;;;;2088297;28;20027;-71
2023/08/04 01:04:20;;;;;;;;;;;18.80;99.90;;;;;;2096051;28;20378;-70
2023/08/04 01:05:23;;;;;;;;;;;18.90;99.90;;;;;;2095985;28;19916;-71
2023/08/04 01:06:42;;;;;;;;;;;18.90;99.90;;;;;;2088800;28;20424;-70
2023/08/04 01:08:03;;;;;;;;;;;18.90;99.90;;;;;;2100201;28;19916;-71
2023/08/04 01:09:15;;;;;;;;;;;18.90;99.90;;;;;;2092609;28;19973;-71
2023/08/04 01:10:18;;;;;;;;;;;18.90;99.90;;;;;;2094158;28;20367;-71
2023/08/04 01:11:20;;;;;;;;;;;18.90;99.90;;;;;;2094601;28;19921;-71
2023/08/04 01:12:30;;;;;;;;;;;18.90;99.90;;;;;;2091510;28;19939;-71
2023/08/04 01:13:31;;;;;;;;;;;18.90;99.90;;;;;;2097666;28;19916;-71
2023/08/04 01:14:33;;;;;;;;;;;18.90;99.90;;;;;;2091922;28;19973;-71
2023/08/04 01:15:35;;;;;;;;;;;18.80;99.90;;;;;;2087706;28;19936;-73
2023/08/04 01:16:36;;;;;;;;;;;18.90;99.90;;;;;;2093932;28;19994;-73
2023/08/04 01:17:37;;;;;;;;;;;18.90;99.90;;;;;;2089139;28;19966;-71
2023/08/04 01:18:37;;;;;;;;;;;18.90;99.90;;;;;;2082133;28;19917;-71
2023/08/04 01:19:38;;;;;;;;;;;18.90;99.90;;;;;;2091400;28;20264;-72
2023/08/04 01:20:38;;;;;;;;;;;18.90;99.90;;;;;;2093994;28;19946;-71
2023/08/04 01:21:42;;;;;;;;;;;18.90;99.90;;;;;;2089918;28;19913;-71
2023/08/04 01:22:43;;;;;;;;;;;18.90;99.90;;;;;;2083601;28;20350;-71
2023/08/04 01:23:43;;;;;;;;;;;18.80;99.90;;;;;;2093072;28;19952;-72
2023/08/04 01:24:44;;;;;;;;;;;18.90;99.90;;;;;;2095465;28;20833;-70
2023/08/04 01:25:44;;;;;;;;;;;18.90;99.90;;;;;;2087498;28;19959;-70
2023/08/04 01:26:47;;;;;;;;;;;18.90;99.90;;;;;;2089376;28;19913;-70
2023/08/04 01:27:50;;;;;;;;;;;18.90;99.90;;;;;;2095417;28;19977;-70
2023/08/04 01:28:50;;;;;;;;;;;18.90;99.90;;;;;;2093029;28;19924;-70
2023/08/04 01:29:52;;;;;;;;;;;18.90;99.90;;;;;;2086680;28;20524;-70
2023/08/04 01:30:54;;;;;;;;;;;18.80;99.90;;;;;;2085146;28;19913;-71
2023/08/04 01:31:57;;;;;;;;;;;18.90;99.90;;;;;;2094872;28;19917;-70
2023/08/04 01:32:58;;;;;;;;;;;18.90;99.90;;;;;;2096433;28;20375;-70
2023/08/04 01:33:58;;;;;;;;;;;18.90;99.90;;;;;;2091698;28;20403;-69
2023/08/04 01:34:59;;;;;;;;;;;18.90;99.90;;;;;;2083792;28;19925;-69
2023/08/04 01:36:00;;;;;;;;;;;18.80;99.90;;;;;;2088101;28;20559;-69
2023/08/04 01:37:00;;;;;;;;;;;18.90;99.90;;;;;;2098195;28;19912;-69
2023/08/04 01:38:01;;;;;;;;;;;18.90;99.90;;;;;;2094954;28;20607;-69
2023/08/04 01:39:01;;;;;;;;;;;18.90;99.90;;;;;;2095589;28;19921;-69
2023/08/04 01:40:02;;;;;;;;;;;18.90;99.90;;;;;;2095378;28;19960;-70
2023/08/04 01:41:05;;;;;;;;;;;18.90;99.90;;;;;;2094272;28;19939;-69
2023/08/04 01:42:06;;;;;;;;;;;18.90;99.90;;;;;;2093207;28;20300;-70
2023/08/04 01:43:06;;;;;;;;;;;18.80;99.90;;;;;;2091704;28;19923;-70
2023/08/04 01:44:07;;;;;;;;;;;18.80;99.90;;;;;;2091436;28;20011;-69
2023/08/04 01:45:08;;;;;;;;;;;18.90;99.90;;;;;;2095690;28;19930;-70
2023/08/04 01:46:08;;;;;;;;;;;18.90;99.90;;;;;;2096684;28;19912;-70
2023/08/04 01:47:09;;;;;;;;;;;18.80;99.90;;;;;;2097844;28;20278;-70
2023/08/04 01:48:09;;;;;;;;;;;18.80;99.90;;;;;;2094604;28;19927;-70
2023/08/04 01:49:10;;;;;;;;;;;18.80;99.90;;;;;;2086545;28;19928;-70
2023/08/04 01:50:11;;;;;;;;;;;18.80;99.90;;;;;;2086329;28;19917;-70
2023/08/04 01:51:11;;;;;;;;;;;18.80;99.90;;;;;;2088885;28;19958;-71
2023/08/04 01:52:12;;;;;;;;;;;18.80;99.90;;;;;;2092237;28;20308;-70
2023/08/04 01:53:12;;;;;;;;;;;18.80;99.90;;;;;;2092085;28;20016;-70
2023/08/04 01:54:13;;;;;;;;;;;18.70;99.90;;;;;;2094936;28;20263;-70
2023/08/04 01:55:14;;;;;;;;;;;18.70;99.90;;;;;;2096373;28;20391;-70
2023/08/04 01:56:14;;;;;;;;;;;18.70;99.90;;;;;;2086483;28;19916;-71
2023/08/04 01:57:15;;;;;;;;;;;18.60;99.90;;;;;;2094945;28;19999;-70
2023/08/04 01:58:15;;;;;;;;;;;18.60;99.90;;;;;;2095607;28;19986;-70
2023/08/04 01:59:16;;;;;;;;;;;18.60;99.90;;;;;;2098324;28;20414;-71
2023/08/04 02:00:18;;;;;;;;;;;18.60;99.90;;;;;;2097026;28;20075;-70
2023/08/04 02:01:19;;;;;;;;;;;18.60;99.90;;;;;;2096473;28;19915;-70
2023/08/04 02:02:20;;;;;;;;;;;18.50;99.90;;;;;;2093352;28;19923;-70
2023/08/04 02:03:20;;;;;;;;;;;18.50;99.90;;;;;;2095253;28;19908;-70
2023/08/04 02:04:21;;;;;;;;;;;18.50;99.90;;;;;;2086596;28;20586;-72
2023/08/04 02:05:21;;;;;;;;;;;18.40;99.90;;;;;;2097283;28;19931;-71
2023/08/04 02:06:22;;;;;;;;;;;18.40;99.90;;;;;;2093168;28;20005;-71
2023/08/04 02:07:22;;;;;;;;;;;18.40;99.90;;;;;;2092298;28;20353;-71
2023/08/04 02:08:23;;;;;;;;;;;18.40;99.90;;;;;;2095474;28;19940;-71
2023/08/04 02:09:27;;;;;;;;;;;18.30;99.90;;;;;;2092478;28;19916;-71
2023/08/04 02:10:28;;;;;;;;;;;18.30;99.90;;;;;;2094281;28;19915;-70
2023/08/04 02:11:30;;;;;;;;;;;18.30;99.90;;;;;;2092314;28;19917;-72
2023/08/04 02:12:30;;;;;;;;;;;18.30;99.90;;;;;;2094658;28;19924;-71
2023/08/04 02:13:31;;;;;;;;;;;18.30;99.90;;;;;;2094045;28;19920;-71
2023/08/04 02:14:33;;;;;;;;;;;18.30;99.90;;;;;;2091267;28;19935;-71
2023/08/04 02:15:33;;;;;;;;;;;18.30;99.90;;;;;;2088831;28;20465;-71
2023/08/04 02:16:34;;;;;;;;;;;18.30;99.90;;;;;;2091145;28;19934;-71
2023/08/04 02:17:35;;;;;;;;;;;18.30;99.90;;;;;;2091161;28;19912;-71
2023/08/04 02:18:36;;;;;;;;;;;18.20;99.90;;;;;;2098508;28;20035;-71
2023/08/04 02:19:36;;;;;;;;;;;18.30;99.90;;;;;;2092481;28;19923;-71
2023/08/04 02:20:37;;;;;;;;;;;18.30;99.90;;;;;;2091595;28;20457;-71
2023/08/04 02:21:37;;;;;;;;;;;18.20;99.90;;;;;;2094472;28;19916;-71
2023/08/04 02:22:38;;;;;;;;;;;18.30;99.90;;;;;;2095160;28;20409;-71
2023/08/04 02:23:38;;;;;;;;;;;18.30;99.90;;;;;;2096723;28;20358;-71
2023/08/04 02:24:39;;;;;;;;;;;18.30;99.90;;;;;;2095585;28;19913;-71
2023/08/04 02:25:39;;;;;;;;;;;18.30;99.90;;;;;;2096585;28;20412;-71
2023/08/04 02:26:40;;;;;;;;;;;18.30;99.90;;;;;;2096334;28;19938;-71
2023/08/04 02:27:40;;;;;;;;;;;18.30;99.90;;;;;;2097663;28;19916;-70
2023/08/04 02:28:41;;;;;;;;;;;18.30;99.90;;;;;;2094417;28;20287;-71
2023/08/04 02:29:41;;;;;;;;;;;18.30;99.90;;;;;;2094174;28;20586;-71
2023/08/04 02:30:44;;;;;;;;;;;18.40;99.90;;;;;;2094638;28;19943;-71
2023/08/04 02:31:45;;;;;;;;;;;18.40;99.90;;;;;;2095188;28;19913;-71
2023/08/04 02:32:45;;;;;;;;;;;18.40;99.90;;;;;;2096963;28;19916;-70
2023/08/04 02:33:46;;;;;;;;;;;18.40;99.90;;;;;;2095082;28;19917;-70
2023/08/04 02:34:48;;;;;;;;;;;18.40;99.90;;;;;;2095627;28;20003;-70
2023/08/04 02:35:49;;;;;;;;;;;18.40;99.90;;;;;;2095496;28;19967;-70
2023/08/04 02:36:50;;;;;;;;;;;18.40;99.90;;;;;;2095194;28;19916;-70
2023/08/04 02:37:50;;;;;;;;;;;18.40;99.90;;;;;;2095594;28;19916;-71
2023/08/04 02:38:51;;;;;;;;;;;18.40;99.90;;;;;;2097750;28;19916;-70
2023/08/04 02:39:52;;;;;;;;;;;18.40;99.90;;;;;;2095082;28;20156;-71
2023/08/04 02:40:52;;;;;;;;;;;18.40;99.90;;;;;;2095108;28;20456;-70
2023/08/04 02:41:53;;;;;;;;;;;18.40;99.90;;;;;;2094634;28;20374;-70
2023/08/04 02:42:54;;;;;;;;;;;18.30;99.90;;;;;;2097891;28;20445;-70
2023/08/04 02:43:54;;;;;;;;;;;18.30;99.90;;;;;;2092262;28;19912;-70
2023/08/04 02:44:55;;;;;;;;;;;18.30;99.90;;;;;;2093592;28;19999;-70
2023/08/04 02:45:55;;;;;;;;;;;18.30;99.90;;;;;;2098231;28;19935;-71
2023/08/04 02:46:56;;;;;;;;;;;18.30;99.90;;;;;;2094121;28;19919;-70
2023/08/04 02:47:58;;;;;;;;;;;18.30;99.90;;;;;;2098833;28;19912;-70
2023/08/04 02:48:59;;;;;;;;;;;18.20;99.90;;;;;;2094401;28;19960;-71
2023/08/04 02:49:59;;;;;;;;;;;18.20;99.90;;;;;;2094429;28;19919;-70
2023/08/04 02:51:04;;;;;;;;;;;18.20;99.90;;;;;;2094711;28;20003;-71
2023/08/04 02:52:04;;;;;;;;;;;18.20;99.90;;;;;;2091834;28;20016;-71
2023/08/04 02:53:05;;;;;;;;;;;18.10;99.90;;;;;;2092647;28;19961;-70
2023/08/04 02:54:06;;;;;;;;;;;18.10;99.90;;;;;;2096400;28;19947;-71
2023/08/04 02:55:06;;;;;;;;;;;18.10;99.90;;;;;;2096709;28;20019;-70
2023/08/04 02:56:11;;;;;;;;;;;18.10;99.90;;;;;;2091882;28;20338;-71
2023/08/04 02:57:11;;;;;;;;;;;18.10;99.90;;;;;;2093908;28;19996;-71
2023/08/04 02:58:12;;;;;;;;;;;18.00;99.90;;;;;;2094383;28;20426;-71
2023/08/04 02:59:12;;;;;;;;;;;18.00;99.90;;;;;;2094867;28;20342;-71
2023/08/04 03:00:13;;;;;;;;;;;18.00;99.90;;;;;;2094318;28;19916;-71
2023/08/04 03:01:13;;;;;;;;;;;18.00;99.90;;;;;;2097382;28;19988;-70
2023/08/04 03:02:14;;;;;;;;;;;17.90;99.90;;;;;;2087232;28;19917;-71
2023/08/04 03:03:15;;;;;;;;;;;17.90;99.90;;;;;;2087277;28;20027;-70
2023/08/04 03:04:15;;;;;;;;;;;17.90;99.90;;;;;;2097796;28;19916;-71
2023/08/04 03:05:16;;;;;;;;;;;17.90;99.90;;;;;;2095159;28;19923;-71
2023/08/04 03:06:16;;;;;;;;;;;17.90;99.90;;;;;;2094095;28;19916;-71
2023/08/04 03:07:17;;;;;;;;;;;17.80;99.90;;;;;;2094514;28;19916;-70
2023/08/04 03:08:18;;;;;;;;;;;17.80;99.90;;;;;;2094344;28;19916;-71
2023/08/04 03:09:18;;;;;;;;;;;17.80;99.90;;;;;;2086252;28;19916;-71
2023/08/04 03:10:18;;;;;;;;;;;17.80;99.90;;;;;;2099715;28;19962;-70
2023/08/04 03:11:19;;;;;;;;;;;17.80;99.90;;;;;;2096111;28;20139;-70
2023/08/04 03:12:19;;;;;;;;;;;17.80;99.90;;;;;;2091438;28;20116;-70
2023/08/04 03:13:20;;;;;;;;;;;17.80;99.90;;;;;;2091930;28;19908;-71
2023/08/04 03:14:21;;;;;;;;;;;17.80;99.90;;;;;;2097897;28;19925;-70
2023/08/04 03:15:21;;;;;;;;;;;17.80;99.90;;;;;;2094280;28;20011;-71
2023/08/04 03:16:22;;;;;;;;;;;17.80;99.90;;;;;;2094378;28;19920;-71
2023/08/04 03:17:22;;;;;;;;;;;17.70;99.90;;;;;;2093900;28;19946;-71
2023/08/04 03:18:23;;;;;;;;;;;17.70;99.90;;;;;;2088528;28;19921;-71
2023/08/04 03:19:24;;;;;;;;;;;17.70;99.90;;;;;;2082620;28;20292;-70
2023/08/04 03:20:24;;;;;;;;;;;17.70;99.90;;;;;;2087569;28;20395;-71
2023/08/04 03:21:25;;;;;;;;;;;17.70;99.90;;;;;;2096186;28;20015;-70
2023/08/04 03:22:25;;;;;;;;;;;17.60;99.90;;;;;;2096269;28;19947;-71
2023/08/04 03:23:26;;;;;;;;;;;17.60;99.90;;;;;;2096923;28;19970;-71
2023/08/04 03:24:26;;;;;;;;;;;17.60;99.90;;;;;;2094058;28;19923;-70
2023/08/04 03:25:27;;;;;;;;;;;17.60;99.90;;;;;;2094785;28;20308;-70
2023/08/04 03:26:27;;;;;;;;;;;17.60;99.90;;;;;;2094464;28;20397;-71
2023/08/04 03:27:28;;;;;;;;;;;17.50;99.90;;;;;;2098058;28;19917;-70
2023/08/04 03:28:28;;;;;;;;;;;17.50;99.90;;;;;;2091799;28;19916;-70
2023/08/04 03:29:29;;;;;;;;;;;17.50;99.90;;;;;;2095376;28;19924;-70
2023/08/04 03:30:30;;;;;;;;;;;17.50;99.90;;;;;;2086983;28;19921;-70
2023/08/04 03:31:31;;;;;;;;;;;17.50;99.90;;;;;;2095406;28;19912;-70
2023/08/04 03:32:31;;;;;;;;;;;17.50;99.90;;;;;;2095909;28;20344;-71
2023/08/04 03:33:32;;;;;;;;;;;17.50;99.90;;;;;;2094948;28;19916;-69
2023/08/04 03:34:32;;;;;;;;;;;17.50;99.90;;;;;;2098108;28;19965;-69
2023/08/04 03:35:33;;;;;;;;;;;17.50;99.90;;;;;;2095782;28;19947;-69
2023/08/04 03:36:33;;;;;;;;;;;17.50;99.90;;;;;;2095806;28;19923;-69
2023/08/04 03:37:34;;;;;;;;;;;17.50;99.90;;;;;;2093799;28;19924;-70
2023/08/04 03:38:35;;;;;;;;;;;17.50;99.90;;;;;;2099756;28;19912;-69
2023/08/04 03:39:35;;;;;;;;;;;17.50;99.90;;;;;;2093515;28;19923;-69
2023/08/04 03:40:36;;;;;;;;;;;17.50;99.90;;;;;;2097709;28;20785;-69
2023/08/04 03:41:36;;;;;;;;;;;17.50;99.90;;;;;;2096810;28;20026;-69
2023/08/04 03:42:38;;;;;;;;;;;17.50;99.90;;;;;;2098489;28;19999;-69
2023/08/04 03:43:38;;;;;;;;;;;17.50;99.90;;;;;;2096280;28;19951;-70
2023/08/04 03:44:39;;;;;;;;;;;17.50;99.90;;;;;;2096298;28;19927;-69
2023/08/04 03:45:39;;;;;;;;;;;17.60;99.90;;;;;;2095807;28;19939;-69
2023/08/04 03:46:40;;;;;;;;;;;17.60;99.90;;;;;;2098624;28;20016;-69
2023/08/04 03:47:40;;;;;;;;;;;17.60;99.90;;;;;;2096785;28;19930;-69
2023/08/04 03:48:41;;;;;;;;;;;17.60;99.90;;;;;;2097057;28;20390;-69
2023/08/04 03:49:41;;;;;;;;;;;17.60;99.90;;;;;;2097235;28;19961;-70
2023/08/04 03:50:43;;;;;;;;;;;17.70;99.90;;;;;;2094231;28;20119;-70
2023/08/04 03:51:43;;;;;;;;;;;17.70;99.90;;;;;;2098566;28;20015;-70
2023/08/04 03:52:44;;;;;;;;;;;17.70;99.90;;;;;;2096361;28;19916;-69
2023/08/04 03:53:44;;;;;;;;;;;17.70;99.90;;;;;;2096433;28;20360;-70
2023/08/04 03:54:45;;;;;;;;;;;17.70;99.90;;;;;;2095533;28;19916;-70
2023/08/04 03:55:45;;;;;;;;;;;17.80;99.90;;;;;;2096067;28;19916;-70
2023/08/04 03:56:46;;;;;;;;;;;17.80;99.90;;;;;;2098816;28;20367;-71
2023/08/04 03:57:46;;;;;;;;;;;17.90;99.90;;;;;;2096896;28;19917;-70
2023/08/04 03:58:47;;;;;;;;;;;17.90;99.90;;;;;;2095193;28;20462;-70
2023/08/04 03:59:47;;;;;;;;;;;17.90;99.90;;;;;;2099170;28;20393;-70
2023/08/04 04:00:48;;;;;;;;;;;17.90;99.90;;;;;;2096739;28;19934;-69
2023/08/04 04:01:49;;;;;;;;;;;17.90;99.90;;;;;;2097008;28;20452;-70
2023/08/04 04:02:50;;;;;;;;;;;18.00;99.90;;;;;;2096114;28;20378;-69
2023/08/04 04:03:50;;;;;;;;;;;18.00;99.90;;;;;;2095531;28;19971;-70
2023/08/04 04:04:51;;;;;;;;;;;18.00;99.90;;;;;;2098774;28;20403;-70
2023/08/04 04:05:51;;;;;;;;;;;18.00;99.90;;;;;;2097064;28;19975;-69
2023/08/04 04:06:51;;;;;;;;;;;18.00;99.90;;;;;;2097428;28;19916;-70
2023/08/04 04:07:52;;;;;;;;;;;18.10;99.90;;;;;;2097662;28;19923;-70
2023/08/04 04:08:54;;;;;;;;;;;18.00;99.90;;;;;;2098313;28;20379;-69
2023/08/04 04:09:54;;;;;;;;;;;18.10;99.90;;;;;;2088604;28;20365;-70
2023/08/04 04:10:55;;;;;;;;;;;18.10;99.90;;;;;;2092689;28;19954;-70
2023/08/04 04:11:55;;;;;;;;;;;18.10;99.90;;;;;;2090486;28;19917;-70
2023/08/04 04:12:56;;;;;;;;;;;18.10;99.90;;;;;;2085070;28;19995;-72
2023/08/04 04:13:56;;;;;;;;;;;18.10;99.90;;;;;;2076022;28;19921;-70
2023/08/04 04:14:57;;;;;;;;;;;18.10;99.90;;;;;;2098185;28;19934;-70
2023/08/04 04:15:57;;;;;;;;;;;18.10;99.90;;;;;;2100543;28;19998;-70
2023/08/04 04:16:58;;;;;;;;;;;18.10;99.90;;;;;;2094649;28;19920;-70
2023/08/04 04:17:58;;;;;;;;;;;18.10;99.90;;;;;;2096717;28;19924;-69
2023/08/04 04:18:59;;;;;;;;;;;18.10;99.90;;;;;;2095808;28;20015;-70
2023/08/04 04:19:59;;;;;;;;;;;18.00;99.90;;;;;;2095168;28;19917;-69
2023/08/04 04:21:00;;;;;;;;;;;18.00;99.90;;;;;;2094651;28;19919;-69
2023/08/04 04:22:00;;;;;;;;;;;18.00;99.90;;;;;;2097302;28;19939;-69
2023/08/04 04:23:01;;;;;;;;;;;18.00;99.90;;;;;;2097270;28;19943;-73
2023/08/04 04:24:01;;;;;;;;;;;18.00;99.90;;;;;;2097147;28;19976;-77
2023/08/04 04:25:02;;;;;;;;;;;18.00;99.90;;;;;;2094618;28;20479;-73
2023/08/04 04:26:07;;;;;;;;;;;18.00;99.90;;;;;;2095603;28;20015;-71
2023/08/04 04:27:08;;;;;;;;;;;18.00;99.90;;;;;;2089674;28;19913;-68
2023/08/04 04:28:08;;;;;;;;;;;18.10;99.90;;;;;;2095365;28;19970;-68
2023/08/04 04:29:09;;;;;;;;;;;18.10;99.90;;;;;;2095242;28;19917;-69
2023/08/04 04:30:09;;;;;;;;;;;18.10;99.90;;;;;;2089487;28;19928;-68
2023/08/04 04:31:10;;;;;;;;;;;18.10;99.90;;;;;;2096739;28;20480;-69
2023/08/04 04:32:10;;;;;;;;;;;18.10;99.90;;;;;;2096704;28;19912;-68
2023/08/04 04:33:11;;;;;;;;;;;18.10;99.90;;;;;;2088439;28;19979;-68
2023/08/04 04:34:12;;;;;;;;;;;18.10;99.90;;;;;;2097881;28;19916;-69
2023/08/04 04:35:12;;;;;;;;;;;18.10;99.90;;;;;;2093278;28;19919;-69
2023/08/04 04:36:13;;;;;;;;;;;18.10;99.90;;;;;;2096360;28;19916;-69
2023/08/04 04:37:13;;;;;;;;;;;18.10;99.90;;;;;;2096000;28;20012;-69
2023/08/04 04:38:14;;;;;;;;;;;18.20;99.90;;;;;;2095997;28;20406;-68
2023/08/04 04:39:14;;;;;;;;;;;18.20;99.90;;;;;;2098555;28;19955;-69
2023/08/04 04:40:15;;;;;;;;;;;18.20;99.90;;;;;;2097546;28;19917;-68
2023/08/04 04:41:15;;;;;;;;;;;18.20;99.90;;;;;;2093479;28;19943;-69
2023/08/04 04:42:16;;;;;;;;;;;18.30;99.90;;;;;;2088073;28;19912;-68
2023/08/04 04:43:17;;;;;;;;;;;18.30;99.90;;;;;;2086397;28;19916;-68
2023/08/04 04:44:18;;;;;;;;;;;18.30;99.90;;;;;;2090953;28;19999;-68
2023/08/04 04:45:18;;;;;;;;;;;18.40;99.90;;;;;;2095782;28;20449;-68
2023/08/04 04:46:18;;;;;;;;;;;18.40;99.90;;;;;;2095685;28;20523;-69
2023/08/04 04:47:19;;;;;;;;;;;18.40;99.90;;;;;;2095809;28;19924;-68
2023/08/04 04:48:20;;;;;;;;;;;18.40;99.90;;;;;;2098212;28;19928;-68
2023/08/04 04:49:21;;;;;;;;;;;18.50;99.90;;;;;;2096580;28;20306;-68
2023/08/04 04:50:21;;;;;;;;;;;18.50;99.90;;;;;;2097122;28;19955;-69
2023/08/04 04:51:22;;;;;;;;;;;18.40;99.90;;;;;;2092242;28;19920;-81
2023/08/04 04:52:33;;;;;;;;;;;18.40;99.90;;;;;;2081151;28;20039;-74
2023/08/04 04:53:33;;;;;;;;;;;18.50;99.90;;;;;;2086878;28;20159;-74
2023/08/04 04:54:34;;;;;;;;;;;18.50;99.90;;;;;;2094987;28;19920;-74
2023/08/04 04:55:35;;;;;;;;;;;18.50;99.90;;;;;;2095015;28;20468;-74
2023/08/04 04:56:35;;;;;;;;;;;18.40;99.90;;;;;;2095654;28;20027;-72
2023/08/04 04:57:39;;;;;;;;;;;18.40;99.90;;;;;;2099085;28;19927;-74
2023/08/04 04:58:40;;;;;;;;;;;18.40;99.90;;;;;;2096845;28;19951;-74
2023/08/04 04:59:41;;;;;;;;;;;18.40;99.90;;;;;;2096685;28;19912;-74
2023/08/04 05:00:44;;;;;;;;;;;18.50;99.90;;;;;;2090521;28;19917;-73
2023/08/04 05:01:45;;;;;;;;;;;18.50;99.90;;;;;;2096621;28;19988;-74
2023/08/04 05:02:45;;;;;;;;;;;18.40;99.90;;;;;;2097910;28;19924;-74
2023/08/04 05:03:46;;;;;;;;;;;18.50;99.90;;;;;;2095073;28;20565;-74
2023/08/04 05:04:47;;;;;;;;;;;18.50;99.90;;;;;;2095555;28;19997;-74
2023/08/04 05:05:47;;;;;;;;;;;18.50;99.90;;;;;;2094815;28;20433;-74
2023/08/04 05:06:48;;;;;;;;;;;18.50;99.90;;;;;;2097904;28;20326;-74
2023/08/04 05:07:48;;;;;;;;;;;18.60;99.90;;;;;;2097082;28;20677;-73
2023/08/04 05:08:49;;;;;;;;;;;18.60;99.90;;;;;;2090339;28;20022;-74
2023/08/04 05:09:49;;;;;;;;;;;18.50;99.90;;;;;;2082451;28;20165;-73
2023/08/04 05:10:50;;;;;;;;;;;18.60;99.90;;;;;;2088738;28;20379;-75
2023/08/04 05:11:51;;;;;;;;;;;18.60;99.90;;;;;;2093745;28;20415;-76
2023/08/04 05:12:52;;;;;;;;;;;18.60;99.90;;;;;;2095161;28;19981;-75
2023/08/04 05:13:52;;;;;;;;;;;18.60;99.90;;;;;;2095149;28;20021;-75
2023/08/04 05:14:53;;;;;;;;;;;18.60;99.90;;;;;;2095729;28;20307;-75
2023/08/04 05:15:53;;;;;;;;;;;18.60;99.90;;;;;;2097918;28;19932;-75
2023/08/04 05:16:54;;;;;;;;;;;18.60;99.90;;;;;;2096398;28;21175;-75
2023/08/04 05:17:54;;;;;;;;;;;18.70;99.90;;;;;;2092981;28;19927;-73
2023/08/04 05:18:55;;;;;;;;;;;18.70;99.90;;;;;;2086469;28;19923;-82
2023/08/04 05:19:55;;;;;;;;;;;18.70;99.90;;;;;;2092150;28;19920;-77
2023/08/04 05:20:56;;;;;;;;;;;18.80;99.90;;;;;;2099535;28;19919;-76
2023/08/04 05:21:57;;;;;;;;;;;18.80;99.90;;;;;;2105636;28;20497;-75
2023/08/04 05:22:57;;;;;;;;;;;18.80;99.90;;;;;;2095017;28;19955;-74
2023/08/04 05:23:58;;;;;;;;;;;18.80;99.90;;;;;;2094920;28;19912;-75
2023/08/04 05:24:58;;;;;;;;;;;18.80;99.90;;;;;;2095911;28;20402;-75
2023/08/04 05:25:59;;;;;;;;;;;18.80;99.90;;;;;;2098477;28;20024;-75
2023/08/04 05:26:59;;;;;;;;;;;18.80;99.90;;;;;;2097026;28;19921;-75
2023/08/04 05:28:17;;;;;;;;;;;18.90;99.90;;;;;;2093385;28;20228;-75
2023/08/04 05:29:18;;;;;;;;;;;18.90;99.90;;;;;;2092348;28;20003;-75
2023/08/04 05:30:18;;;;;;;;;;;18.90;99.90;;;;;;2096672;28;20162;-76
2023/08/04 05:31:19;;;;;;;;;;;19.00;99.90;;;;;;2096135;28;19987;-82
2023/08/04 05:32:19;;;;;;;;;;;19.00;99.90;;;;;;2096266;28;20520;-79
2023/08/04 05:33:20;;;;;;;;;;;19.00;99.90;;;;;;2097444;28;19916;-81
2023/08/04 05:34:21;;;;;;;;;;;19.00;99.90;;;;;;2094805;28;19923;-75
2023/08/04 05:35:21;;;;;;;;;;;19.00;99.90;;;;;;2095395;28;19924;-76
2023/08/04 05:36:24;;;;;;;;;;;19.10;99.90;;;;;;2095528;28;19928;-71
2023/08/04 05:37:25;;;;;;;;;;;19.10;99.90;;;;;;2098403;28;19970;-72
2023/08/04 05:38:25;;;;;;;;;;;19.10;99.90;;;;;;2095875;28;19989;-71
2023/08/04 05:39:26;;;;;;;;;;;19.20;99.90;;;;;;2092118;28;20222;-76
2023/08/04 05:40:28;;;;;;;;;;;19.20;99.90;;;;;;2085908;28;20273;-76
2023/08/04 05:41:28;;;;;;;;;;;19.20;99.90;;;;;;2096063;28;19912;-75
2023/08/04 05:42:29;;;;;;;;;;;19.20;99.90;;;;;;2097568;28;20584;-76
2023/08/04 05:43:29;;;;;;;;;;;19.20;99.90;;;;;;2094384;28;20371;-76
2023/08/04 05:44:30;;;;;;;;;;;19.20;99.90;;;;;;2094379;28;19950;-76
2023/08/04 05:45:37;;;;;;;;;;;19.20;99.90;;;;;;2095417;28;19916;-76
2023/08/04 05:46:37;;;;;;;;;;;19.20;99.90;;;;;;2089047;28;20391;-77
2023/08/04 05:47:38;;;;;;;;;;;19.30;99.90;;;;;;2095927;28;19912;-76
2023/08/04 05:48:39;;;;;;;;;;;19.20;99.90;;;;;;2092355;28;19916;-76
2023/08/04 05:49:39;;;;;;;;;;;19.20;99.90;;;;;;2096301;28;20009;-76
2023/08/04 05:50:40;;;;;;;;;;;19.20;99.90;;;;;;2096341;28;20015;-76
2023/08/04 05:51:40;;;;;;;;;;;19.20;99.90;;;;;;2096290;28;20415;-75
2023/08/04 05:52:41;;;;;;;;;;;19.20;99.90;;;;;;2096402;28;19982;-76
2023/08/04 05:53:42;;;;;;;;;;;19.30;99.90;;;;;;2096696;28;19946;-76
2023/08/04 05:54:43;;;;;;;;;;;19.30;99.90;;;;;;2094423;28;19916;-76